createdAt,value
2023-05-12T00:00:34.829Z,6.75
2023-05-12T00:01:34.843Z,6.74
2023-05-12T00:02:34.987Z,6.82
2023-05-12T00:03:35.138Z,6.69
2023-05-12T00:04:34.942Z,6.80
2023-05-12T00:05:34.975Z,6.72
2023-05-12T00:06:34.979Z,6.80
2023-05-12T00:07:35.030Z,6.66
2023-05-12T00:08:35.039Z,6.56
2023-05-12T00:09:35.084Z,6.76
2023-05-12T00:10:35.145Z,6.58
2023-05-12T00:11:35.195Z,6.33
2023-05-12T00:12:35.241Z,6.24
2023-05-12T00:13:35.317Z,6.31
2023-05-12T00:14:35.296Z,6.45
2023-05-12T00:15:35.336Z,6.35
2023-05-12T00:16:35.413Z,6.45
2023-05-12T00:17:35.457Z,6.35
2023-05-12T00:18:35.522Z,6.35
2023-05-12T00:19:35.522Z,6.22
2023-05-12T00:20:35.585Z,6.33
2023-05-12T00:21:35.607Z,6.12
2023-05-12T00:22:35.655Z,5.96
2023-05-12T00:23:35.681Z,6.16
2023-05-12T00:24:35.702Z,6.01
2023-05-12T00:25:35.706Z,6.01
2023-05-12T00:26:35.718Z,6.13
2023-05-12T00:27:35.757Z,6.00
2023-05-12T00:28:35.784Z,5.86
2023-05-12T00:29:35.802Z,5.83
2023-05-12T00:30:35.871Z,5.89
2023-05-12T00:31:35.875Z,6.05
2023-05-12T00:32:35.898Z,6.14
2023-05-12T00:33:35.884Z,6.10
2023-05-12T00:34:35.934Z,6.14
2023-05-12T00:35:35.996Z,6.55
2023-05-12T00:36:36.011Z,6.66
2023-05-12T00:37:36.055Z,6.75
2023-05-12T00:38:36.069Z,6.81
2023-05-12T00:39:36.105Z,6.73
2023-05-12T00:40:36.165Z,6.90
2023-05-12T00:41:36.140Z,6.97
2023-05-12T00:42:36.170Z,6.95
2023-05-12T00:43:36.217Z,6.93
2023-05-12T00:44:36.232Z,6.76
2023-05-12T00:45:36.343Z,6.76
2023-05-12T00:46:36.317Z,6.99
2023-05-12T00:47:36.397Z,6.85
2023-05-12T00:48:36.382Z,6.82
2023-05-12T00:49:36.431Z,6.78
2023-05-12T00:50:36.436Z,6.86
2023-05-12T00:51:36.422Z,6.90
2023-05-12T00:52:36.428Z,7.02
2023-05-12T00:53:48.518Z,7.00
2023-05-12T00:54:37.436Z,7.01
2023-05-12T00:55:36.479Z,7.00
2023-05-12T00:56:36.433Z,7.02
2023-05-12T00:57:36.413Z,7.15
2023-05-12T00:58:36.411Z,6.98
2023-05-12T00:59:36.405Z,6.86
2023-05-12T01:00:36.404Z,7.01
2023-05-12T01:01:36.522Z,6.91
2023-05-12T01:02:36.611Z,6.72
2023-05-12T01:03:36.396Z,6.54
2023-05-12T01:04:36.378Z,6.49
2023-05-12T01:05:36.358Z,6.60
2023-05-12T01:06:36.352Z,6.60
2023-05-12T01:07:36.342Z,6.54
2023-05-12T01:08:36.368Z,6.64
2023-05-12T01:09:36.355Z,6.31
2023-05-12T01:10:36.339Z,6.59
2023-05-12T01:11:36.334Z,6.56
2023-05-12T01:12:36.320Z,6.67
2023-05-12T01:13:36.316Z,6.59
2023-05-12T01:14:36.331Z,6.36
2023-05-12T01:15:36.287Z,6.40
2023-05-12T01:16:36.302Z,6.33
2023-05-12T01:17:36.396Z,6.26
2023-05-12T01:18:36.345Z,6.31
2023-05-12T01:19:36.291Z,6.37
2023-05-12T01:20:36.284Z,6.37
2023-05-12T01:21:36.306Z,6.56
2023-05-12T01:22:36.297Z,6.50
2023-05-12T01:23:36.293Z,6.59
2023-05-12T01:24:36.307Z,6.62
2023-05-12T01:25:36.285Z,6.49
2023-05-12T01:26:36.298Z,6.53
2023-05-12T01:27:36.315Z,6.51
2023-05-12T01:28:36.344Z,6.57
2023-05-12T01:29:36.346Z,6.65
2023-05-12T01:30:36.367Z,6.70
2023-05-12T01:31:36.467Z,6.63
2023-05-12T01:32:36.387Z,6.85
2023-05-12T01:33:36.357Z,6.94
2023-05-12T01:34:36.367Z,6.95
2023-05-12T01:35:36.390Z,6.99
2023-05-12T01:36:36.391Z,6.90
2023-05-12T01:37:36.406Z,6.89
2023-05-12T01:38:36.378Z,6.89
2023-05-12T01:39:36.408Z,6.75
2023-05-12T01:40:36.408Z,6.89
2023-05-12T01:41:36.417Z,6.85
2023-05-12T01:42:36.369Z,6.79
2023-05-12T01:43:36.369Z,6.90
2023-05-12T01:44:36.364Z,7.00
2023-05-12T01:45:36.368Z,6.82
2023-05-12T01:46:36.427Z,6.88
2023-05-12T01:47:36.398Z,6.90
2023-05-12T01:48:36.364Z,6.87
2023-05-12T01:49:36.404Z,6.72
2023-05-12T01:50:36.361Z,6.77
2023-05-12T01:51:36.368Z,6.98
2023-05-12T01:52:36.365Z,6.81
2023-05-12T01:53:36.361Z,6.95
2023-05-12T01:54:36.393Z,6.76
2023-05-12T01:55:36.343Z,6.93
2023-05-12T01:56:36.391Z,6.90
2023-05-12T01:57:36.435Z,6.95
2023-05-12T01:58:36.574Z,7.03
2023-05-12T01:59:36.534Z,7.10
2023-05-12T02:00:36.554Z,7.03
2023-05-12T02:01:36.625Z,6.97
2023-05-12T02:02:36.701Z,6.93
2023-05-12T02:03:36.737Z,6.75
2023-05-12T02:04:36.734Z,6.72
2023-05-12T02:05:36.787Z,6.64
2023-05-12T02:06:36.825Z,6.23
2023-05-12T02:07:36.863Z,6.19
2023-05-12T02:08:36.896Z,6.00
2023-05-12T02:09:36.940Z,5.89
2023-05-12T02:10:36.943Z,5.66
2023-05-12T02:11:36.929Z,5.58
2023-05-12T02:12:36.930Z,5.48
2023-05-12T02:13:36.967Z,5.30
2023-05-12T02:14:36.958Z,5.14
2023-05-12T02:15:36.947Z,5.01
2023-05-12T02:16:37.025Z,5.00
2023-05-12T02:17:37.003Z,4.93
2023-05-12T02:18:37.043Z,4.81
2023-05-12T02:19:36.965Z,4.81
2023-05-12T02:20:36.966Z,4.76
2023-05-12T02:21:36.989Z,4.74
2023-05-12T02:22:36.991Z,4.68
2023-05-12T02:23:36.987Z,4.68
2023-05-12T02:24:36.979Z,4.42
2023-05-12T02:25:36.979Z,4.43
2023-05-12T02:26:37.004Z,4.26
2023-05-12T02:27:37.000Z,4.24
2023-05-12T02:28:37.023Z,4.24
2023-05-12T02:29:37.012Z,4.09
2023-05-12T02:30:37.009Z,4.04
2023-05-12T02:31:37.089Z,3.98
2023-05-12T02:32:37.054Z,3.91
2023-05-12T02:33:37.052Z,3.91
2023-05-12T02:34:37.060Z,3.85
2023-05-12T02:35:37.089Z,3.90
2023-05-12T02:36:37.142Z,3.84
2023-05-12T02:37:37.170Z,3.79
2023-05-12T02:38:37.228Z,3.92
2023-05-12T02:39:37.276Z,3.85
2023-05-12T02:40:37.315Z,3.79
2023-05-12T02:41:37.353Z,3.79
2023-05-12T02:42:37.388Z,3.72
2023-05-12T02:43:37.466Z,3.61
2023-05-12T02:44:37.457Z,3.53
2023-05-12T02:45:37.522Z,3.44
2023-05-12T02:46:37.480Z,3.30
2023-05-12T02:47:37.544Z,3.35
2023-05-12T02:48:37.472Z,3.34
2023-05-12T02:49:37.458Z,3.21
2023-05-12T02:50:37.457Z,3.27
2023-05-12T02:51:37.446Z,3.14
2023-05-12T02:52:37.462Z,3.04
2023-05-12T02:53:37.458Z,3.03
2023-05-12T02:54:37.463Z,3.04
2023-05-12T02:55:37.455Z,3.03
2023-05-12T02:56:37.443Z,3.04
2023-05-12T02:57:37.428Z,2.93
2023-05-12T02:58:37.441Z,2.90
2023-05-12T02:59:37.443Z,2.80
2023-05-12T03:00:37.429Z,2.93
2023-05-12T03:01:37.456Z,2.88
2023-05-12T03:02:37.482Z,2.83
2023-05-12T03:03:37.558Z,2.85
2023-05-12T03:04:37.413Z,2.89
2023-05-12T03:05:37.396Z,2.86
2023-05-12T03:06:37.390Z,2.87
2023-05-12T03:07:37.394Z,2.96
2023-05-12T03:08:37.406Z,2.94
2023-05-12T03:09:37.395Z,2.87
2023-05-12T03:10:37.362Z,2.89
2023-05-12T03:11:37.372Z,2.85
2023-05-12T03:12:37.391Z,2.80
2023-05-12T03:13:37.360Z,2.89
2023-05-12T03:14:37.369Z,2.82
2023-05-12T03:15:37.358Z,2.70
2023-05-12T03:16:37.410Z,2.80
2023-05-12T03:17:37.436Z,2.84
2023-05-12T03:18:37.386Z,2.72
2023-05-12T03:19:37.354Z,2.69
2023-05-12T03:20:37.355Z,2.77
2023-05-12T03:21:37.366Z,2.69
2023-05-12T03:22:37.365Z,2.74
2023-05-12T03:23:37.350Z,2.73
2023-05-12T03:24:37.341Z,2.77
2023-05-12T03:25:37.329Z,2.72
2023-05-12T03:26:37.324Z,2.64
2023-05-12T03:27:37.328Z,2.70
2023-05-12T03:28:37.310Z,2.66
2023-05-12T03:29:37.310Z,2.72
2023-05-12T03:30:37.343Z,2.70
2023-05-12T03:31:37.366Z,2.63
2023-05-12T03:32:37.359Z,2.68
2023-05-12T03:33:37.312Z,2.67
2023-05-12T03:34:37.340Z,2.63
2023-05-12T03:35:37.294Z,2.64
2023-05-12T03:36:37.317Z,2.60
2023-05-12T03:37:37.295Z,2.69
2023-05-12T03:38:37.306Z,2.64
2023-05-12T03:39:37.290Z,2.67
2023-05-12T03:40:37.310Z,2.67
2023-05-12T03:41:37.306Z,2.67
2023-05-12T03:42:37.307Z,2.60
2023-05-12T03:43:37.304Z,2.71
2023-05-12T03:44:37.297Z,2.65
2023-05-12T03:45:37.299Z,2.68
2023-05-12T03:46:37.355Z,2.70
2023-05-12T03:47:37.453Z,2.74
2023-05-12T03:48:37.265Z,2.69
2023-05-12T03:49:37.260Z,2.70
2023-05-12T03:50:37.268Z,2.64
2023-05-12T03:51:37.262Z,2.64
2023-05-12T03:52:37.266Z,2.66
2023-05-12T03:53:37.240Z,2.66
2023-05-12T03:54:38.096Z,2.64
2023-05-12T03:55:37.232Z,2.73
2023-05-12T03:56:37.235Z,2.62
2023-05-12T03:57:37.223Z,2.70
2023-05-12T03:58:37.238Z,2.74
2023-05-12T03:59:37.233Z,2.62
2023-05-12T04:00:37.224Z,2.70
2023-05-12T04:01:37.278Z,2.74
2023-05-12T04:02:37.309Z,2.77
2023-05-12T04:03:37.279Z,2.70
2023-05-12T04:04:37.237Z,2.80
2023-05-12T04:05:37.213Z,2.96
2023-05-12T04:06:37.190Z,2.85
2023-05-12T04:07:37.205Z,2.85
2023-05-12T04:08:37.735Z,2.89
2023-05-12T04:09:37.193Z,2.88
2023-05-12T04:10:37.181Z,2.85
2023-05-12T04:11:37.221Z,2.87
2023-05-12T04:12:37.185Z,2.88
2023-05-12T04:13:37.187Z,2.99
2023-05-12T04:14:42.742Z,2.91
2023-05-12T04:15:38.159Z,2.92
2023-05-12T04:16:37.269Z,2.94
2023-05-12T04:17:37.208Z,2.96
2023-05-12T04:18:37.177Z,3.10
2023-05-12T04:19:37.171Z,3.15
2023-05-12T04:20:37.144Z,3.15
2023-05-12T04:21:37.138Z,3.20
2023-05-12T04:22:37.138Z,3.37
2023-05-12T04:23:37.115Z,3.33
2023-05-12T04:24:37.127Z,3.30
2023-05-12T04:25:37.118Z,3.29
2023-05-12T04:26:37.098Z,3.30
2023-05-12T04:27:37.104Z,3.38
2023-05-12T04:28:37.089Z,3.46
2023-05-12T04:29:37.084Z,3.53
2023-05-12T04:30:37.072Z,3.48
2023-05-12T04:31:37.107Z,3.52
2023-05-12T04:32:37.106Z,3.37
2023-05-12T04:33:37.046Z,3.46
2023-05-12T04:34:37.055Z,3.49
2023-05-12T04:35:37.035Z,3.44
2023-05-12T04:36:37.031Z,3.63
2023-05-12T04:37:37.039Z,3.52
2023-05-12T04:38:37.024Z,3.51
2023-05-12T04:39:37.024Z,3.53
2023-05-12T04:40:37.016Z,3.54
2023-05-12T04:41:37.007Z,3.43
2023-05-12T04:42:37.014Z,3.46
2023-05-12T04:44:36.980Z,3.54
2023-05-12T04:45:36.970Z,3.57
2023-05-12T04:46:37.013Z,3.51
2023-05-12T04:47:36.965Z,3.53
2023-05-12T04:48:36.943Z,3.57
2023-05-12T04:49:36.953Z,3.61
2023-05-12T04:50:36.950Z,3.51
2023-05-12T04:51:36.944Z,3.62
2023-05-12T04:52:36.934Z,3.61
2023-05-12T04:53:36.916Z,3.64
2023-05-12T04:54:36.924Z,3.63
2023-05-12T04:55:36.904Z,3.64
2023-05-12T04:56:36.909Z,3.71
2023-05-12T04:57:36.912Z,3.72
2023-05-12T04:58:36.890Z,3.69
2023-05-12T04:59:36.877Z,3.60
2023-05-12T05:00:36.873Z,3.61
2023-05-12T05:01:36.933Z,3.71
2023-05-12T05:02:36.960Z,3.80
2023-05-12T05:03:37.069Z,3.77
2023-05-12T05:04:36.844Z,3.75
2023-05-12T05:05:36.858Z,3.71
2023-05-12T05:06:36.854Z,3.79
2023-05-12T05:07:36.847Z,3.77
2023-05-12T05:08:36.826Z,3.70
2023-05-12T05:09:36.888Z,3.77
2023-05-12T05:10:36.827Z,3.78
2023-05-12T05:11:36.834Z,3.74
2023-05-12T05:12:36.800Z,3.59
2023-05-12T05:13:36.799Z,3.59
2023-05-12T05:14:36.790Z,3.62
2023-05-12T05:15:36.822Z,3.61
2023-05-12T05:16:36.773Z,3.69
2023-05-12T05:17:36.809Z,3.67
2023-05-12T05:18:36.778Z,3.74
2023-05-12T05:19:50.881Z,3.62
2023-05-12T05:21:36.735Z,3.65
2023-05-12T05:22:36.742Z,3.67
2023-05-12T05:23:36.735Z,3.68
2023-05-12T05:24:36.739Z,3.66
2023-05-12T05:25:36.706Z,3.64
2023-05-12T05:26:36.715Z,3.53
2023-05-12T05:27:37.141Z,3.54
2023-05-12T05:28:36.691Z,3.55
2023-05-12T05:29:36.690Z,3.61
2023-05-12T05:30:36.710Z,3.63
2023-05-12T05:31:36.705Z,3.27
2023-05-12T05:32:36.673Z,3.25
2023-05-12T05:33:36.662Z,3.37
2023-05-12T05:34:36.710Z,3.25
2023-05-12T05:35:36.707Z,3.05
2023-05-12T05:36:36.701Z,3.17
2023-05-12T05:37:36.727Z,3.13
2023-05-12T05:38:36.773Z,2.97
2023-05-12T05:39:36.815Z,2.88
2023-05-12T05:40:51.498Z,2.73
2023-05-12T05:41:37.809Z,2.74
2023-05-12T05:42:37.145Z,2.81
2023-05-12T05:43:36.814Z,2.94
2023-05-12T05:44:36.785Z,3.18
2023-05-12T05:45:36.796Z,3.71
2023-05-12T05:46:36.827Z,4.07
2023-05-12T05:47:37.197Z,4.31
2023-05-12T05:48:36.790Z,4.53
2023-05-12T05:49:36.766Z,4.70
2023-05-12T05:50:36.766Z,5.04
2023-05-12T05:51:36.768Z,5.44
2023-05-12T05:52:37.173Z,6.02
2023-05-12T05:53:36.731Z,6.44
2023-05-12T05:54:36.742Z,6.70
2023-05-12T05:55:36.729Z,6.99
2023-05-12T05:56:36.726Z,7.29
2023-05-12T05:57:36.768Z,7.90
2023-05-12T05:58:36.821Z,8.44
2023-05-12T05:59:36.856Z,8.47
2023-05-12T06:00:36.864Z,9.84
2023-05-12T06:01:36.934Z,10.67
2023-05-12T06:02:36.912Z,11.21
2023-05-12T06:03:36.961Z,11.34
2023-05-12T06:04:36.835Z,11.70
2023-05-12T06:05:36.871Z,12.16
2023-05-12T06:06:36.866Z,11.05
2023-05-12T06:07:36.901Z,10.56
2023-05-12T06:08:36.969Z,10.19
2023-05-12T06:09:37.034Z,8.38
2023-05-12T06:10:37.091Z,8.57
2023-05-12T06:11:37.133Z,9.33
2023-05-12T06:12:37.204Z,8.19
2023-05-12T06:13:37.264Z,8.04
2023-05-12T06:14:37.328Z,8.27
2023-05-12T06:15:37.378Z,7.90
2023-05-12T06:16:37.461Z,8.19
2023-05-12T06:17:37.498Z,10.11
2023-05-12T06:18:37.664Z,9.86
2023-05-12T06:19:37.574Z,9.40
2023-05-12T06:20:37.610Z,9.50
2023-05-12T06:21:37.678Z,10.11
2023-05-12T06:22:37.728Z,10.92
2023-05-12T06:23:37.751Z,11.08
2023-05-12T06:24:37.810Z,10.31
2023-05-12T06:25:37.846Z,9.34
2023-05-12T06:26:37.907Z,6.87
2023-05-12T06:27:37.972Z,7.22
2023-05-12T06:28:38.031Z,7.72
2023-05-12T06:29:38.031Z,9.71
2023-05-12T06:30:38.076Z,11.46
2023-05-12T06:31:38.167Z,10.15
2023-05-12T06:32:38.740Z,8.73
2023-05-12T06:33:38.204Z,7.27
2023-05-12T06:34:38.269Z,5.71
2023-05-12T06:35:38.299Z,4.63
2023-05-12T06:36:38.338Z,4.66
2023-05-12T06:37:38.671Z,4.76
2023-05-12T06:38:38.453Z,5.21
2023-05-12T06:39:38.513Z,6.14
2023-05-12T06:40:38.543Z,6.10
2023-05-12T06:41:38.587Z,7.14
2023-05-12T06:42:38.630Z,8.93
2023-05-12T06:43:38.659Z,9.83
2023-05-12T06:44:40.668Z,10.76
2023-05-12T06:45:38.680Z,11.91
2023-05-12T06:46:38.755Z,13.45
2023-05-12T06:47:39.184Z,14.62
2023-05-12T06:48:38.645Z,15.88
2023-05-12T06:49:38.702Z,16.34
2023-05-12T06:50:38.633Z,16.38
2023-05-12T06:51:38.637Z,16.91
2023-05-12T06:52:38.623Z,15.66
2023-05-12T06:53:38.625Z,13.42
2023-05-12T06:54:38.619Z,8.13
2023-05-12T06:55:38.621Z,5.60
2023-05-12T06:56:38.907Z,5.02
2023-05-12T06:57:38.704Z,4.66
2023-05-12T06:58:38.577Z,3.71
2023-05-12T06:59:38.579Z,3.00
2023-05-12T07:00:38.589Z,2.93
2023-05-12T07:01:38.628Z,3.22
2023-05-12T07:02:38.608Z,3.23
2023-05-12T07:03:38.597Z,3.12
2023-05-12T07:04:38.550Z,3.13
2023-05-12T07:05:38.638Z,3.10
2023-05-12T07:06:38.518Z,3.50
2023-05-12T07:07:38.721Z,3.72
2023-05-12T07:08:38.538Z,4.38
2023-05-12T07:09:38.514Z,4.39
2023-05-12T07:10:38.505Z,4.20
2023-05-12T07:11:38.500Z,4.38
2023-05-12T07:12:38.514Z,4.62
2023-05-12T07:13:38.500Z,4.87
2023-05-12T07:14:38.468Z,5.35
2023-05-12T07:15:38.496Z,5.87
2023-05-12T07:16:38.510Z,5.90
2023-05-12T07:17:38.489Z,5.06
2023-05-12T07:18:38.690Z,4.06
2023-05-12T07:19:38.432Z,3.83
2023-05-12T07:20:38.451Z,3.96
2023-05-12T07:21:38.425Z,4.52
2023-05-12T07:22:38.941Z,4.69
2023-05-12T07:23:38.407Z,4.26
2023-05-12T07:24:38.451Z,3.95
2023-05-12T07:25:38.482Z,3.20
2023-05-12T07:26:38.396Z,2.50
2023-05-12T07:27:38.399Z,1.76
2023-05-12T07:28:38.800Z,1.50
2023-05-12T07:29:38.399Z,1.14
2023-05-12T07:30:38.384Z,0.89
2023-05-12T07:31:38.445Z,0.83
2023-05-12T07:32:38.418Z,0.78
2023-05-12T07:33:38.687Z,0.90
2023-05-12T07:34:38.342Z,1.13
2023-05-12T07:35:38.356Z,1.30
2023-05-12T07:36:38.354Z,1.36
2023-05-12T07:37:38.350Z,1.55
2023-05-12T07:38:38.311Z,1.97
2023-05-12T07:39:38.311Z,2.21
2023-05-12T07:40:38.299Z,2.64
2023-05-12T07:41:38.295Z,3.10
2023-05-12T07:42:38.323Z,4.00
2023-05-12T07:43:38.294Z,4.65
2023-05-12T07:44:38.283Z,5.13
2023-05-12T07:45:38.302Z,5.48
2023-05-12T07:46:38.317Z,5.90
2023-05-12T07:47:38.331Z,6.01
2023-05-12T07:48:38.693Z,6.20
2023-05-12T07:49:38.259Z,6.43
2023-05-12T07:50:38.235Z,6.06
2023-05-12T07:51:38.249Z,5.45
2023-05-12T07:52:38.252Z,4.44
2023-05-12T07:53:38.679Z,2.56
2023-05-12T07:54:38.248Z,2.29
2023-05-12T07:55:38.227Z,2.00
2023-05-12T07:56:38.201Z,2.14
2023-05-12T07:57:38.200Z,1.75
2023-05-12T07:58:38.701Z,2.08
2023-05-12T07:59:38.179Z,1.58
2023-05-12T08:00:38.195Z,1.51
2023-05-12T08:01:38.269Z,1.72
2023-05-12T08:02:38.231Z,1.55
2023-05-12T08:03:38.200Z,2.05
2023-05-12T08:04:38.261Z,2.00
2023-05-12T08:05:38.154Z,1.61
2023-05-12T08:06:38.149Z,1.52
2023-05-12T08:07:38.135Z,1.34
2023-05-12T08:08:38.196Z,1.20
2023-05-12T08:09:38.159Z,1.23
2023-05-12T08:10:38.193Z,1.20
2023-05-12T08:11:38.206Z,1.17
2023-05-12T08:12:38.233Z,1.03
2023-05-12T08:13:38.242Z,1.06
2023-05-12T08:14:38.252Z,1.10
2023-05-12T08:15:38.254Z,1.11
2023-05-12T08:16:38.400Z,1.13
2023-05-12T08:17:38.290Z,1.14
2023-05-12T08:18:38.331Z,1.15
2023-05-12T08:19:38.286Z,1.19
2023-05-12T08:20:38.307Z,1.54
2023-05-12T08:21:38.318Z,1.42
2023-05-12T08:22:38.340Z,0.91
2023-05-12T08:23:38.706Z,0.85
2023-05-12T08:24:38.411Z,0.97
2023-05-12T08:25:38.476Z,1.39
2023-05-12T08:26:38.521Z,1.80
2023-05-12T08:27:38.558Z,2.02
2023-05-12T08:28:38.679Z,2.32
2023-05-12T08:29:38.605Z,2.49
2023-05-12T08:30:38.649Z,3.20
2023-05-12T08:31:38.762Z,3.32
2023-05-12T08:32:38.794Z,3.85
2023-05-12T08:33:38.695Z,3.90
2023-05-12T08:34:38.696Z,4.24
2023-05-12T08:35:38.705Z,4.24
2023-05-12T08:36:38.725Z,5.13
2023-05-12T08:37:38.736Z,6.27
2023-05-12T08:38:38.753Z,7.02
2023-05-12T08:39:38.745Z,6.45
2023-05-12T08:40:38.742Z,6.56
2023-05-12T08:41:38.749Z,7.95
2023-05-12T08:42:38.771Z,9.09
2023-05-12T08:43:39.212Z,9.72
2023-05-12T08:44:38.866Z,10.29
2023-05-12T08:45:38.944Z,11.78
2023-05-12T08:46:38.974Z,11.12
2023-05-12T08:47:39.059Z,10.83
2023-05-12T08:48:39.092Z,10.63
2023-05-12T08:49:39.144Z,10.00
2023-05-12T08:50:39.205Z,10.54
2023-05-12T08:51:39.249Z,11.46
2023-05-12T08:52:39.269Z,12.00
2023-05-12T08:53:39.303Z,11.96
2023-05-12T08:54:48.614Z,11.93
2023-05-12T08:55:40.347Z,11.97
2023-05-12T08:57:39.866Z,12.38
2023-05-12T08:58:42.182Z,13.43
2023-05-12T08:59:39.351Z,12.03
2023-05-12T09:00:39.350Z,12.40
2023-05-12T09:01:39.328Z,12.90
2023-05-12T09:02:52.076Z,13.94
2023-05-12T09:03:40.735Z,12.08
2023-05-12T09:04:39.377Z,12.67
2023-05-12T09:05:39.277Z,13.67
2023-05-12T09:06:39.286Z,15.32
2023-05-12T09:07:39.262Z,18.14
2023-05-12T09:08:39.280Z,19.55
2023-05-12T09:09:39.283Z,20.70
2023-05-12T09:10:39.241Z,19.72
2023-05-12T09:11:39.268Z,20.40
2023-05-12T09:12:39.228Z,21.14
2023-05-12T09:13:39.755Z,20.97
2023-05-12T09:14:39.218Z,20.40
2023-05-12T09:15:39.274Z,19.06
2023-05-12T09:16:39.356Z,19.30
2023-05-12T09:17:39.398Z,19.57
2023-05-12T09:18:39.449Z,20.12
2023-05-12T09:19:39.501Z,20.27
2023-05-12T09:20:39.557Z,19.52
2023-05-12T09:21:39.549Z,19.96
2023-05-12T09:22:39.556Z,20.12
2023-05-12T09:23:39.713Z,20.32
2023-05-12T09:24:39.584Z,20.29
2023-05-12T09:25:39.600Z,19.93
2023-05-12T09:26:39.644Z,18.52
2023-05-12T09:27:39.650Z,18.31
2023-05-12T09:28:39.659Z,18.87
2023-05-12T09:29:51.578Z,17.80
2023-05-12T09:30:40.668Z,9.27
2023-05-12T09:31:39.642Z,7.88
2023-05-12T09:32:39.659Z,7.01
2023-05-12T09:33:39.639Z,7.55
2023-05-12T09:34:39.647Z,8.26
2023-05-12T09:35:39.638Z,9.62
2023-05-12T09:36:39.623Z,10.10
2023-05-12T09:37:39.599Z,9.61
2023-05-12T09:38:39.740Z,9.52
2023-05-12T09:39:39.631Z,7.03
2023-05-12T09:40:39.610Z,5.93
2023-05-12T09:41:39.594Z,4.35
2023-05-12T09:42:39.590Z,3.08
2023-05-12T09:43:39.723Z,2.42
2023-05-12T09:44:39.615Z,1.72
2023-05-12T09:45:39.710Z,1.43
2023-05-12T09:46:39.732Z,1.23
2023-05-12T09:47:39.784Z,1.14
2023-05-12T09:48:40.222Z,0.99
2023-05-12T09:49:39.863Z,0.94
2023-05-12T09:50:46.857Z,0.91
2023-05-12T09:51:40.915Z,0.88
2023-05-12T09:52:39.883Z,0.76
2023-05-12T09:53:40.328Z,0.82
2023-05-12T09:54:39.878Z,0.97
2023-05-12T09:55:39.860Z,1.19
2023-05-12T09:56:39.853Z,1.49
2023-05-12T09:57:39.879Z,2.00
2023-05-12T09:58:39.870Z,2.39
2023-05-12T09:59:41.706Z,2.91
2023-05-12T10:01:06.150Z,3.13
2023-05-12T10:01:40.924Z,3.14
2023-05-12T10:02:39.882Z,3.23
2023-05-12T10:03:39.810Z,3.39
2023-05-12T10:04:41.830Z,3.79
2023-05-12T10:05:39.808Z,4.10
2023-05-12T10:06:39.790Z,4.24
2023-05-12T10:07:39.798Z,4.62
2023-05-12T10:08:40.249Z,4.76
2023-05-12T10:09:40.285Z,4.30
2023-05-12T10:10:39.787Z,4.15
2023-05-12T10:11:39.772Z,4.32
2023-05-12T10:12:39.781Z,4.49
2023-05-12T10:13:39.828Z,5.05
2023-05-12T10:14:40.241Z,4.76
2023-05-12T10:15:39.913Z,4.49
2023-05-12T10:16:39.962Z,4.52
2023-05-12T10:17:40.079Z,4.91
2023-05-12T10:18:40.094Z,4.98
2023-05-12T10:19:40.066Z,5.07
2023-05-12T10:20:40.121Z,4.84
2023-05-12T10:21:40.171Z,4.66
2023-05-12T10:22:40.192Z,4.59
2023-05-12T10:23:40.746Z,4.61
2023-05-12T10:24:40.818Z,4.98
2023-05-12T10:25:40.332Z,4.99
2023-05-12T10:26:40.412Z,4.93
2023-05-12T10:27:40.426Z,4.94
2023-05-12T10:28:40.457Z,4.54
2023-05-12T10:29:40.528Z,4.44
2023-05-12T10:30:40.526Z,4.39
2023-05-12T10:31:40.659Z,4.72
2023-05-12T10:32:40.650Z,4.62
2023-05-12T10:33:40.674Z,5.08
2023-05-12T10:34:40.712Z,5.21
2023-05-12T10:35:40.758Z,4.89
2023-05-12T10:36:40.776Z,4.69
2023-05-12T10:37:40.834Z,4.71
2023-05-12T10:38:40.869Z,5.20
2023-05-12T10:39:40.900Z,5.06
2023-05-12T10:40:41.041Z,5.20
2023-05-12T10:41:40.980Z,5.19
2023-05-12T10:42:41.057Z,4.69
2023-05-12T10:43:41.059Z,4.51
2023-05-12T10:44:41.105Z,4.43
2023-05-12T10:45:41.142Z,4.55
2023-05-12T10:46:41.217Z,4.36
2023-05-12T10:47:41.260Z,4.29
2023-05-12T10:48:41.267Z,4.35
2023-05-12T10:49:41.855Z,4.67
2023-05-12T10:50:41.289Z,4.96
2023-05-12T10:51:41.297Z,4.61
2023-05-12T10:52:41.359Z,4.40
2023-05-12T10:53:50.130Z,4.50
2023-05-12T10:54:42.740Z,4.51
2023-05-12T10:55:41.529Z,4.52
2023-05-12T10:56:41.648Z,4.53
2023-05-12T10:57:41.742Z,4.51
2023-05-12T10:58:41.643Z,4.61
2023-05-12T10:59:41.688Z,4.14
2023-05-12T11:00:41.713Z,4.29
2023-05-12T11:01:41.736Z,4.32
2023-05-12T11:02:41.947Z,4.19
2023-05-12T11:03:42.381Z,4.38
2023-05-12T11:04:41.890Z,4.12
2023-05-12T11:05:42.297Z,3.91
2023-05-12T11:06:41.513Z,3.29
2023-05-12T11:07:41.951Z,3.20
2023-05-12T11:08:42.315Z,2.71
2023-05-12T11:09:52.532Z,3.15
2023-05-12T11:10:42.434Z,3.18
2023-05-12T11:11:41.474Z,3.31
2023-05-12T11:12:41.405Z,3.04
2023-05-12T11:13:41.347Z,3.37
2023-05-12T11:14:41.912Z,4.22
2023-05-12T11:15:41.337Z,4.37
2023-05-12T11:16:41.364Z,3.55
2023-05-12T11:17:41.423Z,3.82
2023-05-12T11:18:41.352Z,4.05
2023-05-12T11:19:41.773Z,5.31
2023-05-12T11:20:41.290Z,6.27
2023-05-12T11:21:41.298Z,6.52
2023-05-12T11:22:41.342Z,7.94
2023-05-12T11:23:41.390Z,11.21
2023-05-12T11:24:41.771Z,9.91
2023-05-12T11:25:43.506Z,10.36
2023-05-12T11:26:41.507Z,10.51
2023-05-12T11:27:41.478Z,11.46
2023-05-12T11:28:41.504Z,11.07
2023-05-12T11:29:41.465Z,11.55
2023-05-12T11:30:41.474Z,11.58
2023-05-12T11:31:41.568Z,11.46
2023-05-12T11:32:41.473Z,11.65
2023-05-12T11:33:41.424Z,11.71
2023-05-12T11:34:41.458Z,11.59
2023-05-12T11:35:41.459Z,11.96
2023-05-12T11:36:41.423Z,11.95
2023-05-12T11:37:41.426Z,12.27
2023-05-12T11:38:41.401Z,12.74
2023-05-12T11:39:41.391Z,13.35
2023-05-12T11:40:41.401Z,13.36
2023-05-12T11:41:41.376Z,13.42
2023-05-12T11:42:41.375Z,13.50
2023-05-12T11:43:41.380Z,13.21
2023-05-12T11:44:41.370Z,13.48
2023-05-12T11:45:41.409Z,13.56
2023-05-12T11:46:41.340Z,13.79
2023-05-12T11:47:41.349Z,13.90
2023-05-12T11:48:41.343Z,13.88
2023-05-12T11:49:41.329Z,13.84
2023-05-12T11:50:41.319Z,14.32
2023-05-12T11:51:41.310Z,13.98
2023-05-12T11:52:41.318Z,13.86
2023-05-12T11:53:41.299Z,14.02
2023-05-12T11:54:41.310Z,13.86
2023-05-12T11:55:41.313Z,13.79
2023-05-12T11:56:41.287Z,13.51
2023-05-12T11:57:41.272Z,13.48
2023-05-12T11:58:41.265Z,13.55
2023-05-12T11:59:41.266Z,13.37
2023-05-12T12:00:41.257Z,13.18
2023-05-12T12:01:41.268Z,13.12
2023-05-12T12:02:41.345Z,12.86
2023-05-12T12:03:41.322Z,12.75
2023-05-12T12:04:41.399Z,12.24
2023-05-12T12:05:41.261Z,11.84
2023-05-12T12:06:41.281Z,10.80
2023-05-12T12:07:41.345Z,10.00
2023-05-12T12:08:41.410Z,9.65
2023-05-12T12:09:41.779Z,9.22
2023-05-12T12:10:41.518Z,8.56
2023-05-12T12:11:41.608Z,8.11
2023-05-12T12:12:43.308Z,8.29
2023-05-12T12:13:41.728Z,7.39
2023-05-12T12:14:41.804Z,7.07
2023-05-12T12:15:41.925Z,6.28
2023-05-12T12:16:42.055Z,5.96
2023-05-12T12:17:42.029Z,5.71
2023-05-12T12:18:42.028Z,5.33
2023-05-12T12:19:42.087Z,5.14
2023-05-12T12:20:42.158Z,5.08
2023-05-12T12:21:42.212Z,4.75
2023-05-12T12:22:42.273Z,5.01
2023-05-12T12:23:50.788Z,4.61
2023-05-12T12:24:43.326Z,4.46
2023-05-12T12:25:42.318Z,4.33
2023-05-12T12:26:42.303Z,4.32
2023-05-12T12:27:42.296Z,4.02
2023-05-12T12:28:42.286Z,3.93
2023-05-12T12:29:42.303Z,3.50
2023-05-12T12:30:42.312Z,3.55
2023-05-12T12:31:42.324Z,3.41
2023-05-12T12:32:42.328Z,3.14
2023-05-12T12:33:42.255Z,2.85
2023-05-12T12:34:42.310Z,2.68
2023-05-12T12:35:42.368Z,2.51
2023-05-12T12:36:42.421Z,2.38
2023-05-12T12:37:42.457Z,2.33
2023-05-12T12:38:42.659Z,2.21
2023-05-12T12:39:42.664Z,2.17
2023-05-12T12:40:42.634Z,2.17
2023-05-12T12:41:42.699Z,2.07
2023-05-12T12:42:42.714Z,2.15
2023-05-12T12:43:42.748Z,2.32
2023-05-12T12:44:42.780Z,2.39
2023-05-12T12:45:42.849Z,2.31
2023-05-12T12:46:42.922Z,2.39
2023-05-12T12:47:42.994Z,2.63
2023-05-12T12:48:43.024Z,2.68
2023-05-12T12:49:43.086Z,2.44
2023-05-12T12:50:43.137Z,2.58
2023-05-12T12:51:46.744Z,2.63
2023-05-12T12:52:43.184Z,2.61
2023-05-12T12:53:43.177Z,2.66
2023-05-12T12:54:43.189Z,2.63
2023-05-12T12:55:43.182Z,2.69
2023-05-12T12:56:43.181Z,2.50
2023-05-12T12:57:43.178Z,2.92
2023-05-12T12:58:43.168Z,2.51
2023-05-12T12:59:43.170Z,2.63
2023-05-12T13:00:43.175Z,2.47
2023-05-12T13:01:43.131Z,2.73
2023-05-12T13:02:43.209Z,2.61
2023-05-12T13:03:43.134Z,2.63
2023-05-12T13:04:43.122Z,2.57
2023-05-12T13:05:43.123Z,2.40
2023-05-12T13:06:43.116Z,2.55
2023-05-12T13:07:43.097Z,2.75
2023-05-12T13:08:43.084Z,2.57
2023-05-12T13:09:43.091Z,2.47
2023-05-12T13:10:43.087Z,2.49
2023-05-12T13:11:43.073Z,2.27
2023-05-12T13:12:43.061Z,2.46
2023-05-12T13:13:43.057Z,2.42
2023-05-12T13:14:43.095Z,2.25
2023-05-12T13:15:43.109Z,2.42
2023-05-12T13:16:43.188Z,2.39
2023-05-12T13:17:43.265Z,2.30